Time;durP1;ratioP1;P1;durP2;ratioP2;P2;SDS_P1;SDS_P2;PMS_P1;PMS_P2;Temp;Humidity;BMP_temperature;BMP_pressure;BME280_temperature;BME280_humidity;BME280_pressure;Samples;Min_cycle;Max_cycle;Signal;HPM_P1;HPM_P2
2022/04/21 00:01:07;;;;;;;5.57;5.00;;;;;;;9.06;63.45;100090.00;5044485;28;20042;-79
2022/04/21 00:03:35;;;;;;;5.65;5.03;;;;;;;9.08;63.38;100082.00;5063927;28;20065;-80
2022/04/21 00:06:04;;;;;;;6.28;4.93;;;;;;;9.05;63.88;100080.34;5055350;28;20180;-80
2022/04/21 00:08:32;;;;;;;8.13;4.90;;;;;;;8.97;63.55;100065.78;5065561;28;20049;-79
2022/04/21 00:10:59;;;;;;;6.15;4.88;;;;;;;8.96;63.70;100066.72;5060208;28;20452;-79
2022/04/21 00:13:26;;;;;;;6.55;5.10;;;;;;;8.96;64.33;100061.44;5055531;28;20099;-79
2022/04/21 00:15:53;;;;;;;7.97;4.97;;;;;;;8.89;64.23;100057.34;5060541;28;20121;-79
2022/04/21 00:18:19;;;;;;;5.32;4.80;;;;;;;8.90;64.47;100069.63;5052978;28;20053;-80
2022/04/21 00:20:46;;;;;;;6.90;5.20;;;;;;;8.90;64.66;100061.69;5059276;28;20041;-78
2022/04/21 00:23:29;;;;;;;6.07;5.05;;;;;;;8.84;64.63;100052.25;5058054;28;20140;-78
2022/04/21 00:26:01;;;;;;;6.00;5.22;;;;;;;8.85;64.33;100053.97;5054055;28;20068;-78
2022/04/21 00:28:31;;;;;;;6.22;5.13;;;;;;;8.83;64.27;100058.47;5055782;28;20045;-79
2022/04/21 00:30:59;;;;;;;6.80;4.65;;;;;;;8.78;64.40;100042.84;5058402;28;20049;-78
2022/04/21 00:33:26;;;;;;;7.35;4.88;;;;;;;8.76;64.42;100044.72;5056121;28;20049;-78
2022/04/21 00:35:54;;;;;;;6.32;5.28;;;;;;;8.68;64.81;100032.75;5053946;28;20107;-78
2022/04/21 00:38:21;;;;;;;6.75;4.97;;;;;;;8.75;64.46;100053.56;5054578;28;20037;-80
2022/04/21 00:40:50;;;;;;;7.10;5.32;;;;;;;8.78;64.32;100052.56;5056349;28;20115;-80
2022/04/21 00:43:17;;;;;;;6.55;4.60;;;;;;;8.72;64.33;100027.28;5052480;28;20146;-78
2022/04/21 00:45:44;;;;;;;6.40;5.00;;;;;;;8.74;64.27;100030.72;5050680;28;20053;-78
2022/04/21 00:48:11;;;;;;;6.60;4.78;;;;;;;8.69;64.42;100016.84;5059509;28;20051;-78
2022/04/21 00:50:38;;;;;;;6.65;5.07;;;;;;;8.83;64.11;100039.97;5066623;28;20083;-78
2022/04/21 00:53:07;;;;;;;6.35;4.97;;;;;;;8.78;64.24;100036.72;5030464;28;20045;-78
2022/04/21 00:55:37;;;;;;;9.32;5.38;;;;;;;8.70;64.02;100031.78;5058485;28;20053;-79
2022/04/21 00:58:05;;;;;;;7.03;5.07;;;;;;;8.66;64.70;100026.69;5055891;28;20068;-79
2022/04/21 01:00:32;;;;;;;8.85;5.18;;;;;;;8.66;64.63;100031.97;5061584;28;20111;-79
2022/04/21 01:02:59;;;;;;;7.03;4.97;;;;;;;8.57;64.52;100020.06;5037270;28;20050;-79
2022/04/21 01:05:31;;;;;;;5.68;4.53;;;;;;;8.61;64.92;100026.91;5040106;28;20065;-79
2022/04/21 01:07:59;;;;;;;8.05;4.60;;;;;;;8.55;65.08;100013.97;5038338;28;20050;-79
2022/04/21 01:10:28;;;;;;;6.93;5.32;;;;;;;8.56;65.14;100014.84;5032604;28;20054;-78
2022/04/21 01:12:55;;;;;;;6.47;5.18;;;;;;;8.58;64.63;100023.56;5037741;28;20064;-78
2022/04/21 01:15:22;;;;;;;6.30;4.53;;;;;;;8.57;64.90;100016.56;5031915;28;20041;-78
2022/04/21 01:17:52;;;;;;;7.07;5.15;;;;;;;8.60;64.77;100025.19;5043976;28;21701;-79
2022/04/21 01:20:19;;;;;;;6.82;5.10;;;;;;;8.57;64.96;100022.69;5036796;28;20042;-79
2022/04/21 01:22:47;;;;;;;5.57;4.70;;;;;;;8.61;65.05;100026.91;5034861;28;20100;-79
2022/04/21 01:25:14;;;;;;;6.85;4.70;;;;;;;8.62;64.58;100022.50;5042805;28;20140;-78
2022/04/21 01:27:42;;;;;;;6.45;5.22;;;;;;;8.57;64.88;100012.13;5032004;28;20045;-78
2022/04/21 01:30:12;;;;;;;6.80;4.72;;;;;;;8.56;64.88;100012.19;5031785;28;20087;-79
2022/04/21 01:32:45;;;;;;;5.80;5.18;;;;;;;8.61;64.60;100019.00;5035726;28;20082;-78
2022/04/21 01:35:12;;;;;;;7.05;4.85;;;;;;;8.57;64.57;100012.13;5050347;28;20140;-79
2022/04/21 01:43:11;;;;;;;6.57;5.13;;;;;;;8.59;64.70;100010.28;5031292;28;20153;-79
2022/04/21 01:45:38;;;;;;;8.45;5.47;;;;;;;8.53;64.95;99997.34;5039349;28;20104;-79
2022/04/21 01:48:06;;;;;;;8.52;5.47;;;;;;;8.48;65.03;99995.88;5060180;28;20046;-79
2022/04/21 01:50:34;;;;;;;8.82;5.20;;;;;;;8.44;65.22;99990.72;5041557;28;20143;-79
2022/04/21 01:53:00;;;;;;;7.25;5.55;;;;;;;8.45;65.25;99991.59;5033021;28;20431;-78
2022/04/21 01:55:27;;;;;;;6.93;5.25;;;;;;;8.40;65.78;99998.84;5033097;28;20046;-78
2022/04/21 01:57:54;;;;;;;8.20;5.55;;;;;;;8.31;66.12;99978.97;5024484;28;20051;-79
2022/04/21 02:00:23;;;;;;;7.32;5.05;;;;;;;8.35;66.05;99995.53;5035380;28;20099;-79
2022/04/21 02:02:52;;;;;;;;;;;;;;;8.32;66.05;99990.41;5051702;28;20469;-80
2022/04/21 02:05:19;;;;;;;9.10;5.65;;;;;;;8.24;66.25;99987.22;5052097;28;20380;-79
2022/04/21 02:07:46;;;;;;;6.50;5.80;;;;;;;8.17;66.96;99986.63;5053168;28;20069;-80
2022/04/21 02:10:15;;;;;;;7.57;5.63;;;;;;;8.06;67.04;99987.09;5053503;28;20079;-78
2022/04/21 02:12:42;;;;;;;7.45;5.72;;;;;;;8.09;67.43;99992.22;5050935;28;20101;-81
2022/04/21 02:15:10;;;;;;;7.03;5.82;;;;;;;8.01;67.25;99981.16;5049680;28;20044;-79
2022/04/21 02:17:38;;;;;;;7.28;5.63;;;;;;;7.96;67.71;99982.28;5051740;28;20071;-79
2022/04/21 02:20:08;;;;;;;8.55;5.88;;;;;;;7.93;68.13;99980.63;5035800;28;20068;-80
2022/04/21 02:22:35;;;;;;;6.45;5.50;;;;;;;7.93;68.44;99987.69;5057766;28;20064;-79
2022/04/21 02:25:09;;;;;;;8.52;5.57;;;;;;;7.89;68.19;99980.81;5057709;28;20025;-82
2022/04/21 02:27:38;;;;;;;8.15;5.57;;;;;;;7.87;68.35;99982.69;5052417;28;20468;-78
2022/04/21 02:30:07;;;;;;;7.85;5.60;;;;;;;7.82;68.57;99976.75;5051936;28;20443;-80
2022/04/21 02:32:35;;;;;;;7.18;5.65;;;;;;;7.83;68.96;99981.94;5046878;28;20049;-79
2022/04/21 02:35:03;;;;;;;6.18;5.50;;;;;;;7.86;69.24;99976.56;5053268;28;20080;-78
2022/04/21 02:37:37;;;;;;;7.97;5.85;;;;;;;7.83;69.11;99979.31;5050908;28;20045;-78
2022/04/21 02:40:10;;;;;;;7.55;5.68;;;;;;;7.83;69.46;99974.03;5047635;28;20053;-81
2022/04/21 02:42:41;;;;;;;7.75;5.43;;;;;;;7.80;68.94;99960.13;5052318;28;20439;-79
2022/04/21 02:45:12;;;;;;;8.90;5.90;;;;;;;7.89;68.69;99976.41;5049922;28;20100;-80
2022/04/21 02:47:40;;;;;;;8.82;5.97;;;;;;;7.82;68.88;99967.06;5052269;28;20049;-80
2022/04/21 02:50:08;;;;;;;7.45;5.93;;;;;;;7.79;69.21;99971.59;5052064;28;20052;-79
2022/04/21 02:52:41;;;;;;;9.38;5.85;;;;;;;7.70;69.85;99972.84;5051425;28;20065;-80
2022/04/21 02:57:56;;;;;;;9.43;5.80;;;;;;;7.64;70.47;99965.19;5054035;28;20531;-79
2022/04/21 03:00:23;;;;;;;10.05;6.10;;;;;;;7.56;70.68;99954.09;5055612;28;20045;-78
2022/04/21 03:02:50;;;;;;;8.52;5.85;;;;;;;7.39;70.66;99931.97;5051257;28;20059;-79
2022/04/21 03:05:19;;;;;;;6.95;5.95;;;;;;;7.54;71.05;99961.22;5050364;28;20656;-79
2022/04/21 03:07:46;;;;;;;9.32;5.65;;;;;;;7.57;71.00;99967.22;5057551;28;20049;-80
2022/04/21 03:10:12;;;;;;;9.68;5.93;;;;;;;7.51;70.87;99956.94;5061805;28;20045;-78
2022/04/21 03:12:39;;;;;;;7.32;6.05;;;;;;;7.55;71.29;99966.44;5060871;28;20068;-78
2022/04/21 03:15:10;;;;;;;8.38;6.03;;;;;;;7.50;71.03;99957.84;5049994;28;20045;-80
2022/04/21 03:17:37;;;;;;;6.82;5.97;;;;;;;7.49;70.96;99960.56;5051726;28;20145;-78
2022/04/21 03:20:04;;;;;;;7.28;5.72;;;;;;;7.43;71.02;99953.75;5048384;28;20083;-79
2022/04/21 03:25:17;;;;;;;10.20;5.93;;;;;;;7.48;71.61;99961.47;5048313;28;20075;-78
2022/04/21 03:27:48;;;;;;;9.77;5.43;;;;;;;7.54;70.60;99961.22;5045430;28;20501;-78
2022/04/21 03:30:15;;;;;;;7.53;5.80;;;;;;;7.54;70.66;99971.78;5051086;28;20063;-78
2022/04/21 03:32:42;;;;;;;8.65;5.53;;;;;;;7.53;70.46;99984.09;5053834;28;20139;-79
2022/04/21 03:35:09;;;;;;;8.68;6.18;;;;;;;7.47;70.76;99972.94;5044283;28;20337;-79
2022/04/21 03:37:36;;;;;;;10.52;5.95;;;;;;;7.36;70.81;99950.53;5051497;28;20598;-80
2022/04/21 03:40:04;;;;;;;6.68;5.50;;;;;;;7.43;71.02;99968.69;5052198;28;20124;-79
2022/04/21 03:42:31;;;;;;;8.75;6.22;;;;;;;7.35;71.69;99954.09;5049591;28;20045;-79
2022/04/21 03:44:59;;;;;;;7.40;5.72;;;;;;;7.48;71.52;99975.50;5053372;28;20049;-79
2022/04/21 03:47:26;;;;;;;8.57;6.28;;;;;;;7.47;71.30;99972.94;5063822;28;20090;-79
2022/04/21 03:49:53;;;;;;;8.73;6.63;;;;;;;7.49;71.81;99981.63;5053908;28;20117;-79
2022/04/21 03:52:22;;;;;;;8.73;6.10;;;;;;;7.40;71.25;99962.63;5058911;28;20061;-80
2022/04/21 03:54:49;;;;;;;8.73;6.32;;;;;;;7.49;71.25;99973.72;5058564;28;20048;-78
2022/04/21 03:57:19;;;;;;;8.52;6.72;;;;;;;7.47;71.63;99965.03;5062776;28;20071;-79
2022/04/21 03:59:46;;;;;;;8.73;6.40;;;;;;;7.56;71.57;99967.25;5060911;28;20044;-78
2022/04/21 04:02:14;;;;;;;9.05;5.90;;;;;;;7.64;71.05;99975.72;5053703;28;20076;-79
2022/04/21 04:04:41;;;;;;;8.63;6.07;;;;;;;7.68;70.93;99970.28;5055509;28;20052;-79
2022/04/21 04:12:40;;;;;;;7.30;5.85;;;;;;;7.78;71.03;99972.50;5060998;28;20040;-80
2022/04/21 04:15:08;;;;;;;9.55;6.07;;;;;;;7.75;70.63;99963.81;5063052;28;20044;-78
2022/04/21 04:17:35;;;;;;;9.20;6.88;;;;;;;7.70;70.92;99962.31;5044301;28;20099;-78
2022/04/21 04:20:03;;;;;;;8.20;6.28;;;;;;;7.69;71.18;99973.78;5059784;28;20124;-80
2022/04/21 04:22:34;;;;;;;11.85;6.47;;;;;;;7.56;71.36;99948.81;5051599;28;20068;-80
2022/04/21 04:25:00;;;;;;;8.77;6.75;;;;;;;7.59;71.65;99960.09;5058255;28;20080;-79
2022/04/21 04:27:28;;;;;;;7.80;6.60;;;;;;;7.62;71.53;99969.66;5054230;28;20033;-80
2022/04/21 04:29:54;;;;;;;11.35;6.78;;;;;;;7.53;71.45;99954.25;5029510;28;20053;-79
2022/04/21 04:32:21;;;;;;;9.90;6.68;;;;;;;7.55;71.74;99960.31;5058599;28;20049;-79
2022/04/21 04:34:48;;;;;;;9.32;6.30;;;;;;;7.54;72.26;99958.59;5052810;28;20069;-79
2022/04/21 04:37:15;;;;;;;10.15;6.95;;;;;;;7.64;71.75;99965.19;5054552;28;20041;-79
2022/04/21 04:39:41;;;;;;;10.07;6.43;;;;;;;7.54;71.46;99946.28;5054544;28;20053;-79
2022/04/21 04:42:17;;;;;;;8.77;7.13;;;;;;;7.58;71.57;99952.25;5055393;28;20045;-79
2022/04/21 04:44:45;;;;;;;9.35;6.72;;;;;;;7.68;71.10;99967.63;5057735;28;20055;-79
2022/04/21 04:47:12;;;;;;;9.10;6.50;;;;;;;7.59;71.52;99956.59;5056693;28;20056;-79
2022/04/21 04:49:40;;;;;;;9.70;6.88;;;;;;;7.60;71.66;99951.28;5060116;28;20065;-81
2022/04/21 04:52:07;;;;;;;7.78;6.60;;;;;;;7.67;71.37;99970.34;5058207;28;20495;-80
2022/04/21 04:54:34;;;;;;;8.57;6.28;;;;;;;7.63;71.64;99966.97;5053396;28;20460;-80
2022/04/21 04:57:04;;;;;;;9.23;6.60;;;;;;;7.62;71.71;99964.38;5054439;28;20392;-81
2022/04/21 04:59:30;;;;;;;10.30;6.70;;;;;;;7.59;72.00;99953.97;5058241;28;20053;-81
2022/04/21 05:01:58;;;;;;;9.07;6.70;;;;;;;7.58;71.46;99950.47;5057228;28;20144;-80
2022/04/21 05:04:25;;;;;;;7.97;6.60;;;;;;;7.61;71.36;99945.09;5056837;28;20056;-79
2022/04/21 05:07:05;;;;;;;8.65;6.63;;;;;;;7.73;71.36;99962.16;5059756;28;20079;-80
2022/04/21 05:09:32;;;;;;;8.82;6.85;;;;;;;7.75;70.88;99947.13;5040886;28;20045;-81
2022/04/21 05:11:59;;;;;;;11.10;6.32;;;;;;;7.91;71.35;99958.75;5059319;28;20118;-78
2022/04/21 05:14:26;;;;;;;9.23;7.15;;;;;;;7.92;70.69;99952.53;5053115;28;20045;-79
2022/04/21 05:16:54;;;;;;;12.45;7.25;;;;;;;7.79;69.95;99938.19;5057182;28;20101;-79
2022/04/21 05:19:24;;;;;;;10.48;6.97;;;;;;;7.95;73.16;99965.59;5044389;28;20529;-73
2022/04/21 05:21:51;;;;;;;8.80;7.32;;;;;;;7.81;73.80;99967.97;5047447;28;20049;-76
2022/04/21 05:24:19;;;;;;;10.40;7.18;;;;;;;7.70;72.63;99964.94;5049099;28;20456;-76
2022/04/21 05:26:46;;;;;;;9.77;7.65;;;;;;;7.51;73.35;99961.34;5047468;28;20055;-76
2022/04/21 05:32:01;;;;;;;8.68;7.55;;;;;;;7.30;73.79;99949.91;5052704;28;20052;-76
2022/04/21 05:34:30;;;;;;;10.90;7.75;;;;;;;7.32;73.64;99953.34;5048246;28;20068;-77
2022/04/21 05:36:58;;;;;;;10.32;7.60;;;;;;;7.36;73.37;99960.22;5046082;28;20099;-78
2022/04/21 05:39:27;;;;;;;10.93;8.27;;;;;;;7.35;73.92;99953.22;5049107;28;20053;-78
2022/04/21 05:41:57;;;;;;;12.38;7.82;;;;;;;7.35;73.64;99951.44;5052713;28;20504;-79
2022/04/21 05:44:24;;;;;;;9.03;7.33;;;;;;;7.45;73.78;99959.81;5052222;28;20064;-77
2022/04/21 05:46:53;;;;;;;12.70;7.30;;;;;;;7.52;73.71;99965.69;5047783;28;20095;-77
2022/04/21 05:49:20;;;;;;;8.68;7.57;;;;;;;7.60;73.11;99953.06;5050534;28;20040;-77
2022/04/21 05:51:48;;;;;;;9.80;7.63;;;;;;;7.68;72.89;99961.50;5052574;28;20137;-77
2022/04/21 05:54:15;;;;;;;9.50;7.53;;;;;;;7.71;72.05;99950.84;5054316;28;20045;-82
2022/04/21 05:56:42;;;;;;;10.50;7.40;;;;;;;7.91;72.11;99957.88;5051824;28;20045;-78
2022/04/21 05:59:10;;;;;;;9.25;7.72;;;;;;;8.05;71.25;99958.13;5055402;28;20052;-79
2022/04/21 06:01:37;;;;;;;9.82;7.63;;;;;;;8.20;70.57;99954.81;5056158;28;20061;-79
2022/04/21 06:04:04;;;;;;;10.68;6.80;;;;;;;8.41;69.34;99960.97;5057253;28;20112;-80
2022/04/21 06:06:31;;;;;;;11.25;7.45;;;;;;;8.34;69.19;99936.63;5062319;28;20067;-82
2022/04/21 06:08:58;;;;;;;12.13;8.50;;;;;;;8.59;68.40;99967.19;5062293;28;20052;-78
2022/04/21 06:11:25;;;;;;;11.10;7.38;;;;;;;8.61;68.53;99955.66;5055988;28;20088;-80
2022/04/21 06:13:52;;;;;;;9.68;7.53;;;;;;;8.75;67.90;99960.28;5059575;28;20111;-79
2022/04/21 06:16:22;;;;;;;8.27;6.75;;;;;;;8.95;67.89;99962.00;5053085;28;20051;-79
2022/04/21 06:18:50;;;;;;;10.13;6.80;;;;;;;9.07;66.90;99958.78;5056070;28;20073;-79
2022/04/21 06:21:17;;;;;;;13.82;7.18;;;;;;;9.03;65.85;99942.22;5052340;28;20405;-84
2022/04/21 06:23:44;;;;;;;15.18;6.90;;;;;;;9.23;65.69;99958.91;5034848;28;20087;-84
2022/04/21 06:26:11;;;;;;;9.00;6.47;;;;;;;9.33;64.54;99949.59;5064135;28;20048;-81
2022/04/21 06:28:38;;;;;;;11.75;6.15;;;;;;;9.58;64.88;99965.97;5069278;28;20049;-81
2022/04/21 06:31:05;;;;;;;8.82;6.55;;;;;;;9.90;64.30;99951.13;5058888;28;20061;-82
2022/04/21 06:33:32;;;;;;;10.05;6.10;;;;;;;10.51;61.03;99945.28;5053161;28;20098;-81
2022/04/21 06:36:00;;;;;;;7.07;5.80;;;;;;;10.73;60.61;99948.47;5057000;28;20495;-85
2022/04/21 06:38:29;;;;;;;9.75;6.50;;;;;;;10.83;60.29;99964.72;5062460;28;20099;-82
2022/04/21 06:40:57;;;;;;;;;;;;;;;10.96;59.37;99964.91;5063191;28;20048;-85
2022/04/21 06:48:58;;;;;;;10.32;6.95;;;;;;;11.01;58.99;99942.53;5060860;28;20041;-80
2022/04/21 06:51:27;;;;;;;9.48;6.43;;;;;;;11.08;58.12;99953.63;5057592;28;20101;-85
2022/04/21 06:53:55;;;;;;;7.00;5.90;;;;;;;11.04;58.46;99949.41;5067322;28;20059;-83
2022/04/21 06:56:23;;;;;;;9.00;6.03;;;;;;;10.93;59.43;99959.78;5065222;28;20083;-82
2022/04/21 06:58:55;;;;;;;7.30;5.30;;;;;;;10.92;58.14;99947.47;5063354;28;20049;-81
2022/04/21 07:01:25;;;;;;;6.57;5.07;;;;;;;10.95;58.56;99936.69;5052581;28;20049;-81
2022/04/21 07:03:52;;;;;;;8.65;5.40;;;;;;;10.82;58.32;99929.44;5041848;28;20073;-81
2022/04/21 07:06:19;;;;;;;10.02;5.50;;;;;;;11.18;58.18;99950.34;5042041;28;20607;-79
2022/04/21 07:08:47;;;;;;;11.55;5.95;;;;;;;11.60;57.69;99957.66;5036181;28;20050;-78
2022/04/21 07:11:15;;;;;;;6.60;5.40;;;;;;;11.72;55.98;99934.00;5034591;28;20053;-79
2022/04/21 07:13:44;;;;;;;8.07;5.72;;;;;;;11.76;55.68;99943.53;5033708;28;20056;-81
2022/04/21 07:16:11;;;;;;;8.75;5.43;;;;;;;11.72;56.54;99948.13;5036772;28;20053;-77
2022/04/21 07:18:50;;;;;;;9.15;6.10;;;;;;;11.56;56.63;99950.81;5040309;28;20055;-80
2022/04/21 07:21:18;;;;;;;8.45;5.97;;;;;;;11.47;57.51;99956.66;5039286;28;20464;-82
2022/04/21 07:23:45;;;;;;;11.60;6.70;;;;;;;11.12;58.46;99940.13;5038860;28;20401;-84
2022/04/21 07:26:12;;;;;;;8.68;6.53;;;;;;;11.02;59.36;99951.31;5035588;28;20042;-82
2022/04/21 07:28:42;;;;;;;8.35;6.13;;;;;;;10.99;60.30;99957.66;5042273;28;20121;-81
2022/04/21 07:31:09;;;;;;;9.75;6.22;;;;;;;10.98;60.06;99957.72;5040790;28;20056;-82
2022/04/21 07:33:37;;;;;;;8.40;5.70;;;;;;;11.10;60.01;99960.53;5048514;28;20091;-82
2022/04/21 07:36:04;;;;;;;8.20;5.70;;;;;;;11.18;59.82;99965.41;5049470;28;20203;-84
2022/04/21 07:38:34;;;;;;;8.60;5.63;;;;;;;11.03;60.03;99943.25;5054538;28;20059;-81
2022/04/21 07:41:02;;;;;;;7.32;5.88;;;;;;;11.19;60.33;99961.81;5041177;28;20037;-83
2022/04/21 07:43:32;;;;;;;6.70;5.45;;;;;;;11.14;60.19;99937.38;5046747;28;20042;-83
2022/04/21 07:45:59;;;;;;;10.30;5.20;;;;;;;11.25;59.24;99946.44;5052970;28;20033;-82
2022/04/21 07:49:44;;;;;;;10.65;5.50;;;;;;;11.13;58.73;99947.13;5049692;28;20041;-82
2022/04/21 07:51:16;;;;;;;7.78;5.28;;;;;;;11.01;59.77;99957.56;5052466;28;20095;-80
2022/04/21 07:53:45;;;;;;;10.77;5.97;;;;;;;10.96;60.38;99956.94;5054583;28;20050;-81
2022/04/21 07:56:16;;;;;;;7.70;5.75;;;;;;;11.04;59.73;99954.72;5031902;28;20057;-82
2022/04/21 07:58:45;;;;;;;10.95;5.28;;;;;;;10.95;60.09;99949.94;5052240;28;20109;-83
2022/04/21 08:01:16;;;;;;;7.57;5.20;;;;;;;10.73;59.43;99892.84;5055335;28;20048;-82
2022/04/21 08:03:45;;;;;;;8.02;5.00;;;;;;;10.93;58.46;99912.09;5047836;28;20046;-82
2022/04/21 08:06:12;;;;;;;10.18;5.50;;;;;;;11.22;58.87;99954.53;5042995;28;20058;-81
2022/04/21 08:08:41;;;;;;;6.70;5.07;;;;;;;11.13;58.34;99940.97;5040696;28;20048;-81
2022/04/21 08:11:10;;;;;;;7.30;5.32;;;;;;;11.09;58.09;99931.47;5040612;28;20085;-81
2022/04/21 08:13:38;;;;;;;8.80;5.63;;;;;;;11.01;58.60;99926.63;5041134;28;20042;-84
2022/04/21 08:16:05;;;;;;;7.28;5.20;;;;;;;11.09;58.42;99934.13;5035709;28;20073;-83
2022/04/21 08:18:32;;;;;;;9.15;5.18;;;;;;;11.18;59.26;99949.50;5043902;28;20045;-80
2022/04/21 08:20:59;;;;;;;8.75;5.75;;;;;;;11.15;58.94;99939.94;5039728;28;20085;-81
2022/04/21 08:23:42;;;;;;;10.05;6.20;;;;;;;11.36;58.98;99950.25;5047400;28;20071;-80
2022/04/21 08:34:46;;;;;;;8.43;5.30;;;;;;;11.10;58.10;99910.19;5016374;28;20062;-81
2022/04/21 08:37:14;;;;;;;7.72;5.55;;;;;;;11.39;58.48;99953.59;5029663;28;20045;-82
2022/04/21 08:39:42;;;;;;;7.80;5.82;;;;;;;11.62;58.34;99946.97;5040523;28;20045;-81
2022/04/21 08:42:10;;;;;;;8.18;5.47;;;;;;;11.74;56.68;99932.13;5047287;28;20565;-81
2022/04/21 08:44:41;;;;;;;7.65;5.50;;;;;;;12.04;56.88;99946.25;5043165;28;20049;-81
2022/04/21 08:47:14;;;;;;;5.80;5.20;;;;;;;12.23;54.86;99925.63;5016333;28;20057;-80
2022/04/21 08:49:49;;;;;;;12.68;5.90;;;;;;;12.40;55.92;99940.50;5023863;28;20104;-80
2022/04/21 08:52:17;;;;;;;9.05;5.10;;;;;;;12.58;54.11;99941.19;5035181;28;20486;-80
2022/04/21 08:54:46;;;;;;;8.82;5.35;;;;;;;12.74;53.23;99915.34;5036295;28;20049;-80
2022/04/21 08:57:14;;;;;;;6.90;5.40;;;;;;;13.13;52.43;99930.53;5037759;28;20066;-81
2022/04/21 08:59:41;;;;;;;6.75;5.00;;;;;;;13.18;52.03;99930.28;5032877;28;20049;-81
2022/04/21 09:02:08;;;;;;;9.35;5.65;;;;;;;13.28;51.84;99921.59;5043927;28;20057;-81
2022/04/21 09:04:44;;;;;;;8.05;5.10;;;;;;;13.43;50.87;99924.19;5051931;28;20103;-80
2022/04/21 09:07:16;;;;;;;7.80;5.25;;;;;;;13.54;50.95;99914.53;5051968;28;20053;-80
2022/04/21 09:10:11;;;;;;;8.57;5.00;;;;;;;13.98;49.84;99913.38;5048835;28;20329;-81
2022/04/21 09:12:45;;;;;;;6.15;5.18;;;;;;;14.21;49.03;99907.28;5033756;28;20072;-80
2022/04/21 09:15:18;;;;;;;8.55;5.13;;;;;;;14.24;48.32;99888.44;5037430;28;20045;-80
2022/04/21 09:17:53;;;;;;;6.10;4.50;;;;;;;14.47;47.19;99908.19;5057806;28;20098;-79
2022/04/21 09:20:23;;;;;;;8.90;4.82;;;;;;;14.20;47.83;99907.38;5054393;28;20064;-80
2022/04/21 09:22:54;;;;;;;;;;;;;;;14.11;47.83;99914.22;5055341;28;20049;-81
2022/04/21 09:25:32;;;;;;;6.88;4.82;;;;;;;14.02;48.08;99907.69;5055615;28;19935;-78
2022/04/21 09:28:02;;;;;;;5.53;4.57;;;;;;;13.67;48.62;99890.66;5052832;28;20065;-79
2022/04/21 09:30:29;;;;;;;7.00;4.05;;;;;;;13.79;49.31;99892.47;5050452;28;20056;-77
2022/04/21 09:33:00;;;;;;;7.20;4.72;;;;;;;14.01;48.37;99906.00;5051942;28;20064;-78
2022/04/21 09:35:33;;;;;;;10.52;4.80;;;;;;;13.78;48.51;99908.53;5049554;28;20057;-77
2022/04/21 09:38:05;;;;;;;5.95;4.55;;;;;;;13.54;49.57;99882.63;5054255;28;20458;-79
2022/04/21 09:40:36;;;;;;;8.65;4.82;;;;;;;13.61;49.40;99875.09;5046059;28;20095;-76
2022/04/21 09:43:03;;;;;;;9.18;4.93;;;;;;;13.76;49.19;99887.34;5051040;28;20098;-79
2022/04/21 09:48:30;;;;;;;9.10;4.82;;;;;;;14.28;48.37;99897.06;5044697;28;20057;-76
2022/04/21 09:51:13;;;;;;;6.75;4.75;;;;;;;14.42;47.55;99890.81;5052713;28;20453;-76
2022/04/21 09:53:58;;;;;;;4.95;4.40;;;;;;;14.52;46.94;99873.19;5051844;28;20072;-76
2022/04/21 09:56:36;;;;;;;6.85;4.63;;;;;;;14.78;46.32;99892.66;5056748;28;20045;-77
2022/04/21 09:59:07;;;;;;;6.55;4.60;;;;;;;14.93;46.05;99876.41;5060174;28;20056;-80
2022/04/21 10:01:36;;;;;;;8.68;4.72;;;;;;;14.99;45.41;99878.59;5055241;28;20084;-79
2022/04/21 10:04:17;;;;;;;6.25;4.30;;;;;;;15.06;45.76;99871.00;5044036;28;20041;-78
2022/04/21 10:06:53;;;;;;;6.60;4.20;;;;;;;15.04;44.45;99870.28;5055711;28;20049;-80
2022/04/21 10:09:21;;;;;;;6.13;4.00;;;;;;;14.82;44.96;99836.31;5053191;28;20057;-77
2022/04/21 10:11:52;;;;;;;7.03;4.20;;;;;;;15.01;44.91;99865.16;5051628;28;20057;-81
2022/04/21 10:14:21;;;;;;;5.35;4.25;;;;;;;14.67;45.40;99874.75;5053621;28;20041;-78
2022/04/21 10:16:53;;;;;;;8.55;4.22;;;;;;;14.55;46.52;99846.34;5020097;28;20101;-80
2022/04/21 10:19:22;;;;;;;8.23;4.25;;;;;;;14.62;43.97;99868.94;5056897;28;21721;-80
2022/04/21 10:22:00;;;;;;;7.78;4.13;;;;;;;14.57;45.28;99879.06;5050562;28;20045;-78
2022/04/21 10:24:34;;;;;;;4.13;3.65;;;;;;;14.63;44.87;99873.31;5055454;28;20095;-80
2022/04/21 10:27:02;;;;;;;5.07;3.90;;;;;;;14.46;43.34;99866.50;5060045;28;20055;-78
2022/04/21 10:29:29;;;;;;;6.28;4.07;;;;;;;14.62;43.88;99861.78;5050669;28;20056;-78
2022/04/21 10:31:58;;;;;;;6.20;3.88;;;;;;;14.63;43.38;99849.31;5051828;28;20061;-81
2022/04/21 10:34:36;;;;;;;4.68;3.60;;;;;;;14.69;42.59;99848.84;5049840;28;20048;-81
2022/04/21 10:37:06;;;;;;;;;;;;;;;14.71;42.81;99845.13;5053893;28;20057;-79
2022/04/21 10:39:35;;;;;;;5.10;3.10;;;;;;;14.78;41.84;99848.19;5057031;28;20273;-79
2022/04/21 10:42:21;;;;;;;4.93;3.60;;;;;;;14.77;42.34;99851.81;5050275;28;20049;-78
2022/04/21 10:44:52;;;;;;;4.50;3.50;;;;;;;14.74;42.91;99838.72;5047825;28;20088;-81
2022/04/21 10:47:30;;;;;;;4.82;3.95;;;;;;;14.71;43.34;99830.94;5062844;28;20188;-77
2022/04/21 10:50:18;;;;;;;5.88;3.97;;;;;;;14.71;43.77;99826.47;5051626;28;20093;-76
2022/04/21 10:58:35;;;;;;;7.95;3.60;;;;;;;15.15;43.80;99827.66;5053632;28;20052;-79
2022/04/21 11:01:28;;;;;;;4.65;3.63;;;;;;;15.18;43.55;99778.56;5054606;28;20476;-81
2022/04/21 11:04:31;;;;;;;5.65;4.13;;;;;;;15.62;42.97;99805.41;5056298;28;20159;-78
2022/04/21 11:07:11;;;;;;;5.43;4.07;;;;;;;15.77;42.70;99811.38;5003171;28;20057;-80
2022/04/21 11:09:48;;;;;;;5.60;4.23;;;;;;;15.96;42.52;99816.13;5034247;28;20046;-81
2022/04/21 11:12:45;;;;;;;6.75;5.40;;;;;;;15.88;42.53;99815.91;5051292;28;20037;-79
2022/04/21 11:15:50;;;;;;;5.00;4.30;;;;;;;15.81;43.20;99807.50;5054136;28;20135;-79
2022/04/21 11:18:17;;;;;;;5.85;4.43;;;;;;;15.45;43.69;99790.66;5054380;28;20053;-81
2022/04/21 11:20:47;;;;;;;6.28;4.00;;;;;;;15.45;44.05;99784.47;5046318;28;20053;-79
2022/04/21 11:23:44;;;;;;;5.07;3.85;;;;;;;15.85;43.01;99797.44;5061914;28;20036;-80
2022/04/21 11:26:12;;;;;;;4.55;3.72;;;;;;;16.14;42.71;99804.84;5042156;28;20041;-79
2022/04/21 11:28:45;;;;;;;5.60;3.83;;;;;;;16.32;42.78;99797.19;5067581;28;20049;-80
2022/04/21 11:31:13;;;;;;;5.63;4.30;;;;;;;16.33;42.34;99792.72;5068550;28;20029;-80
2022/04/21 11:33:44;;;;;;;5.28;4.00;;;;;;;16.29;41.97;99796.59;5075767;28;20044;-81
2022/04/21 11:36:14;;;;;;;5.70;4.07;;;;;;;16.04;42.43;99784.34;5078229;28;20056;-81
2022/04/21 11:38:45;;;;;;;5.38;4.25;;;;;;;15.93;43.09;99765.63;5041461;28;20044;-80
2022/04/21 11:41:12;;;;;;;;;;;;;;;16.18;42.36;99785.91;5057888;28;20064;-80
2022/04/21 11:43:46;;;;;;;4.10;3.65;;;;;;;16.09;42.54;99790.16;5071079;28;19931;-79
2022/04/21 11:46:14;;;;;;;6.68;3.95;;;;;;;15.92;42.66;99772.78;5074424;28;20049;-78
2022/04/21 11:48:42;;;;;;;5.68;3.65;;;;;;;16.01;42.59;99789.94;5074718;28;20053;-79
2022/04/21 11:51:11;;;;;;;5.40;3.50;;;;;;;15.99;42.51;99773.16;5076327;28;20037;-80
2022/04/21 11:53:43;;;;;;;4.07;3.40;;;;;;;15.84;42.71;99740.53;5068581;28;20087;-79
2022/04/21 11:56:11;;;;;;;8.75;3.83;;;;;;;15.98;42.00;99766.13;5066976;28;20052;-79
2022/04/21 11:58:43;;;;;;;4.10;3.35;;;;;;;16.04;41.95;99763.84;5058480;28;20059;-79
2022/04/21 12:06:58;;;;;;;6.05;3.70;;;;;;;16.13;43.16;99752.41;5056805;28;20572;-79
2022/04/21 12:09:33;;;;;;;3.45;3.15;;;;;;;15.93;43.29;99760.28;5066386;28;20049;-80
2022/04/21 12:12:03;;;;;;;4.95;3.65;;;;;;;16.21;42.75;99746.47;5048248;28;20068;-79
2022/04/21 12:14:31;;;;;;;4.50;3.50;;;;;;;16.49;41.61;99753.09;5067314;28;20075;-78
2022/04/21 12:17:01;;;;;;;4.47;3.20;;;;;;;16.52;41.75;99741.28;5066381;28;20034;-78
2022/04/21 12:19:37;;;;;;;;;;;;;;;16.56;41.35;99748.06;5050540;28;20101;-80
2022/04/21 12:22:10;;;;;;;7.88;3.90;;;;;;;16.35;41.99;99746.19;5064690;28;19921;-79
2022/04/21 12:24:45;;;;;;;3.95;3.55;;;;;;;16.29;43.02;99711.94;5070844;28;20043;-78
2022/04/21 12:27:19;;;;;;;6.47;3.83;;;;;;;16.39;42.37;99733.41;5069312;28;22831;-78
2022/04/21 12:29:46;;;;;;;5.65;3.67;;;;;;;16.53;42.43;99740.31;5054707;28;20644;-79
2022/04/21 12:32:25;;;;;;;4.22;3.13;;;;;;;16.27;41.34;99670.28;5050974;28;20128;-78
2022/04/21 12:34:55;;;;;;;3.83;3.10;;;;;;;16.80;41.24;99703.31;5026394;28;20061;-78
2022/04/21 12:37:32;;;;;;;3.83;2.97;;;;;;;17.23;40.58;99732.63;5043589;28;20048;-78